sensor_id;sensor_type;location;lat;lon;timestamp;P1;durP1;ratioP1;P2;durP2;ratioP2
35612;SDS011;22054;51.646;7.078;2023-08-21T00:01:20;0.50;;;0.50;;
35612;SDS011;22054;51.646;7.078;2023-08-21T00:03:46;0.50;;;0.50;;
35612;SDS011;22054;51.646;7.078;2023-08-21T00:06:12;0.60;;;0.60;;
35612;SDS011;22054;51.646;7.078;2023-08-21T00:08:38;1.00;;;1.00;;
35612;SDS011;22054;51.646;7.078;2023-08-21T00:11:03;0.82;;;0.82;;
35612;SDS011;22054;51.646;7.078;2023-08-21T00:13:29;0.68;;;0.68;;
35612;SDS011;22054;51.646;7.078;2023-08-21T00:15:57;0.80;;;0.80;;
35612;SDS011;22054;51.646;7.078;2023-08-21T00:18:23;2.03;;;1.92;;
35612;SDS011;22054;51.646;7.078;2023-08-21T00:20:48;1.40;;;1.40;;
35612;SDS011;22054;51.646;7.078;2023-08-21T00:23:14;1.30;;;1.30;;
35612;SDS011;22054;51.646;7.078;2023-08-21T00:25:40;1.08;;;1.08;;
35612;SDS011;22054;51.646;7.078;2023-08-21T00:28:11;0.40;;;0.40;;
35612;SDS011;22054;51.646;7.078;2023-08-21T00:30:37;1.20;;;1.20;;
35612;SDS011;22054;51.646;7.078;2023-08-21T00:33:03;2.60;;;2.50;;
35612;SDS011;22054;51.646;7.078;2023-08-21T00:35:29;5.95;;;5.75;;
35612;SDS011;22054;51.646;7.078;2023-08-21T00:37:55;2.67;;;2.58;;
35612;SDS011;22054;51.646;7.078;2023-08-21T00:40:21;3.28;;;3.17;;
35612;SDS011;22054;51.646;7.078;2023-08-21T00:42:47;5.20;;;5.00;;
35612;SDS011;22054;51.646;7.078;2023-08-21T00:45:13;1.70;;;1.70;;
35612;SDS011;22054;51.646;7.078;2023-08-21T00:47:39;5.72;;;5.53;;
35612;SDS011;22054;51.646;7.078;2023-08-21T00:50:06;7.82;;;7.53;;
35612;SDS011;22054;51.646;7.078;2023-08-21T00:52:36;6.10;;;5.90;;
35612;SDS011;22054;51.646;7.078;2023-08-21T00:55:04;5.70;;;5.50;;
35612;SDS011;22054;51.646;7.078;2023-08-21T00:57:34;3.00;;;2.90;;
35612;SDS011;22054;51.646;7.078;2023-08-21T01:00:01;3.65;;;3.55;;
35612;SDS011;22054;51.646;7.078;2023-08-21T01:02:30;5.15;;;4.95;;
35612;SDS011;22054;51.646;7.078;2023-08-21T01:04:56;7.30;;;7.00;;
35612;SDS011;22054;51.646;7.078;2023-08-21T01:07:21;5.57;;;5.38;;
35612;SDS011;22054;51.646;7.078;2023-08-21T01:12:34;2.90;;;2.80;;
35612;SDS011;22054;51.646;7.078;2023-08-21T01:15:22;4.57;;;4.38;;
35612;SDS011;22054;51.646;7.078;2023-08-21T01:17:49;2.30;;;2.20;;
35612;SDS011;22054;51.646;7.078;2023-08-21T01:20:15;3.55;;;3.45;;
35612;SDS011;22054;51.646;7.078;2023-08-21T01:22:42;7.70;;;7.40;;
35612;SDS011;22054;51.646;7.078;2023-08-21T01:25:11;2.10;;;2.00;;
35612;SDS011;22054;51.646;7.078;2023-08-21T01:27:38;1.27;;;1.27;;
35612;SDS011;22054;51.646;7.078;2023-08-21T01:30:07;1.00;;;1.00;;
35612;SDS011;22054;51.646;7.078;2023-08-21T01:35:24;6.43;;;6.20;;
35612;SDS011;22054;51.646;7.078;2023-08-21T01:37:51;5.32;;;5.13;;
35612;SDS011;22054;51.646;7.078;2023-08-21T01:40:23;7.35;;;7.05;;
35612;SDS011;22054;51.646;7.078;2023-08-21T01:42:50;8.25;;;7.95;;
35612;SDS011;22054;51.646;7.078;2023-08-21T01:45:20;8.07;;;7.77;;
35612;SDS011;22054;51.646;7.078;2023-08-21T01:47:47;9.30;;;8.90;;
35612;SDS011;22054;51.646;7.078;2023-08-21T01:50:14;5.57;;;5.38;;
35612;SDS011;22054;51.646;7.078;2023-08-21T01:52:40;7.65;;;7.35;;
35612;SDS011;22054;51.646;7.078;2023-08-21T01:55:06;6.78;;;6.47;;
35612;SDS011;22054;51.646;7.078;2023-08-21T01:57:35;8.50;;;8.20;;
35612;SDS011;22054;51.646;7.078;2023-08-21T02:00:01;7.85;;;7.55;;
35612;SDS011;22054;51.646;7.078;2023-08-21T02:02:29;7.70;;;7.40;;
35612;SDS011;22054;51.646;7.078;2023-08-21T02:04:56;8.10;;;7.80;;
35612;SDS011;22054;51.646;7.078;2023-08-21T02:07:21;8.30;;;8.00;;
35612;SDS011;22054;51.646;7.078;2023-08-21T02:09:47;8.60;;;8.30;;
35612;SDS011;22054;51.646;7.078;2023-08-21T02:12:13;7.90;;;7.60;;
35612;SDS011;22054;51.646;7.078;2023-08-21T02:14:39;4.90;;;4.70;;
35612;SDS011;22054;51.646;7.078;2023-08-21T02:17:04;4.72;;;4.53;;
35612;SDS011;22054;51.646;7.078;2023-08-21T02:19:30;5.15;;;4.95;;
35612;SDS011;22054;51.646;7.078;2023-08-21T02:21:56;5.15;;;4.95;;
35612;SDS011;22054;51.646;7.078;2023-08-21T02:24:22;4.63;;;4.43;;
35612;SDS011;22054;51.646;7.078;2023-08-21T02:26:48;7.20;;;6.90;;
35612;SDS011;22054;51.646;7.078;2023-08-21T02:29:14;7.25;;;6.95;;
35612;SDS011;22054;51.646;7.078;2023-08-21T02:31:40;6.70;;;6.40;;
35612;SDS011;22054;51.646;7.078;2023-08-21T02:34:06;6.88;;;6.57;;
35612;SDS011;22054;51.646;7.078;2023-08-21T02:36:31;7.10;;;6.80;;
35612;SDS011;22054;51.646;7.078;2023-08-21T02:38:57;6.90;;;6.60;;
35612;SDS011;22054;51.646;7.078;2023-08-21T02:41:23;6.80;;;6.50;;
35612;SDS011;22054;51.646;7.078;2023-08-21T02:43:49;6.90;;;6.60;;
35612;SDS011;22054;51.646;7.078;2023-08-21T02:46:15;7.20;;;6.90;;
35612;SDS011;22054;51.646;7.078;2023-08-21T02:48:42;6.10;;;5.90;;
35612;SDS011;22054;51.646;7.078;2023-08-21T02:51:08;7.20;;;6.90;;
35612;SDS011;22054;51.646;7.078;2023-08-21T02:53:33;5.57;;;5.38;;
35612;SDS011;22054;51.646;7.078;2023-08-21T02:55:59;7.88;;;7.57;;
35612;SDS011;22054;51.646;7.078;2023-08-21T02:58:25;8.13;;;7.82;;
35612;SDS011;22054;51.646;7.078;2023-08-21T03:00:51;8.15;;;7.85;;
35612;SDS011;22054;51.646;7.078;2023-08-21T03:03:16;7.60;;;7.30;;
35612;SDS011;22054;51.646;7.078;2023-08-21T03:05:42;7.85;;;7.55;;
35612;SDS011;22054;51.646;7.078;2023-08-21T03:08:08;7.40;;;7.10;;
35612;SDS011;22054;51.646;7.078;2023-08-21T03:10:34;4.95;;;4.75;;
35612;SDS011;22054;51.646;7.078;2023-08-21T03:13:03;4.60;;;4.40;;
35612;SDS011;22054;51.646;7.078;2023-08-21T03:15:28;5.55;;;5.35;;
35612;SDS011;22054;51.646;7.078;2023-08-21T03:17:55;5.35;;;5.15;;
35612;SDS011;22054;51.646;7.078;2023-08-21T03:20:21;5.35;;;5.15;;
35612;SDS011;22054;51.646;7.078;2023-08-21T03:22:47;5.07;;;4.88;;
35612;SDS011;22054;51.646;7.078;2023-08-21T03:25:12;5.00;;;4.80;;
35612;SDS011;22054;51.646;7.078;2023-08-21T03:27:38;4.72;;;4.53;;
35612;SDS011;22054;51.646;7.078;2023-08-21T03:30:08;4.78;;;4.57;;
35612;SDS011;22054;51.646;7.078;2023-08-21T03:32:34;4.60;;;4.40;;
35612;SDS011;22054;51.646;7.078;2023-08-21T03:35:00;5.32;;;5.13;;
35612;SDS011;22054;51.646;7.078;2023-08-21T03:37:26;3.85;;;3.55;;
35612;SDS011;22054;51.646;7.078;2023-08-21T03:39:52;3.30;;;3.20;;
35612;SDS011;22054;51.646;7.078;2023-08-21T03:42:17;2.88;;;2.78;;
35612;SDS011;22054;51.646;7.078;2023-08-21T03:44:43;3.33;;;3.22;;
35612;SDS011;22054;51.646;7.078;2023-08-21T03:47:09;3.10;;;3.00;;
35612;SDS011;22054;51.646;7.078;2023-08-21T03:49:35;2.72;;;2.63;;
35612;SDS011;22054;51.646;7.078;2023-08-21T03:52:01;3.10;;;3.00;;
35612;SDS011;22054;51.646;7.078;2023-08-21T03:54:27;3.30;;;3.20;;
35612;SDS011;22054;51.646;7.078;2023-08-21T03:56:53;3.00;;;2.90;;
35612;SDS011;22054;51.646;7.078;2023-08-21T03:59:19;2.75;;;2.65;;
35612;SDS011;22054;51.646;7.078;2023-08-21T04:01:45;2.75;;;2.65;;
35612;SDS011;22054;51.646;7.078;2023-08-21T04:04:10;2.90;;;2.80;;
35612;SDS011;22054;51.646;7.078;2023-08-21T04:06:36;3.00;;;2.90;;
35612;SDS011;22054;51.646;7.078;2023-08-21T04:09:02;3.20;;;3.10;;
35612;SDS011;22054;51.646;7.078;2023-08-21T04:11:31;3.72;;;3.63;;
35612;SDS011;22054;51.646;7.078;2023-08-21T04:13:58;3.80;;;3.70;;
35612;SDS011;22054;51.646;7.078;2023-08-21T04:16:24;4.22;;;4.03;;
35612;SDS011;22054;51.646;7.078;2023-08-21T04:18:51;4.07;;;3.88;;
35612;SDS011;22054;51.646;7.078;2023-08-21T04:21:16;3.97;;;3.85;;
35612;SDS011;22054;51.646;7.078;2023-08-21T04:23:43;4.07;;;3.88;;
35612;SDS011;22054;51.646;7.078;2023-08-21T04:26:10;4.28;;;4.07;;
35612;SDS011;22054;51.646;7.078;2023-08-21T04:28:36;4.03;;;3.83;;
35612;SDS011;22054;51.646;7.078;2023-08-21T04:31:05;4.30;;;4.10;;
35612;SDS011;22054;51.646;7.078;2023-08-21T04:35:58;3.80;;;3.70;;
35612;SDS011;22054;51.646;7.078;2023-08-21T04:38:24;6.80;;;6.50;;
35612;SDS011;22054;51.646;7.078;2023-08-21T04:40:50;0.00;;;0.00;;
35612;SDS011;22054;51.646;7.078;2023-08-21T04:43:16;2.90;;;2.80;;
35612;SDS011;22054;51.646;7.078;2023-08-21T04:45:49;5.57;;;5.38;;
35612;SDS011;22054;51.646;7.078;2023-08-21T04:48:17;5.00;;;4.80;;
35612;SDS011;22054;51.646;7.078;2023-08-21T04:50:45;4.90;;;4.70;;
35612;SDS011;22054;51.646;7.078;2023-08-21T04:53:11;4.22;;;4.03;;
35612;SDS011;22054;51.646;7.078;2023-08-21T04:55:37;5.07;;;4.88;;
35612;SDS011;22054;51.646;7.078;2023-08-21T04:58:05;5.43;;;5.22;;
35612;SDS011;22054;51.646;7.078;2023-08-21T05:00:35;5.72;;;5.53;;
35612;SDS011;22054;51.646;7.078;2023-08-21T05:03:01;6.22;;;6.03;;
35612;SDS011;22054;51.646;7.078;2023-08-21T05:05:27;5.85;;;5.65;;
35612;SDS011;22054;51.646;7.078;2023-08-21T05:07:53;5.70;;;5.50;;
35612;SDS011;22054;51.646;7.078;2023-08-21T05:10:19;5.90;;;5.70;;
35612;SDS011;22054;51.646;7.078;2023-08-21T05:12:45;5.80;;;5.60;;
35612;SDS011;22054;51.646;7.078;2023-08-21T05:15:13;5.93;;;5.72;;
35612;SDS011;22054;51.646;7.078;2023-08-21T05:17:39;5.82;;;5.63;;
35612;SDS011;22054;51.646;7.078;2023-08-21T05:20:05;6.38;;;6.18;;
35612;SDS011;22054;51.646;7.078;2023-08-21T05:22:31;5.60;;;5.40;;
35612;SDS011;22054;51.646;7.078;2023-08-21T05:24:57;6.00;;;5.80;;
35612;SDS011;22054;51.646;7.078;2023-08-21T05:27:23;5.93;;;5.72;;
35612;SDS011;22054;51.646;7.078;2023-08-21T05:29:49;6.80;;;6.50;;
35612;SDS011;22054;51.646;7.078;2023-08-21T05:32:16;6.10;;;5.90;;
35612;SDS011;22054;51.646;7.078;2023-08-21T05:34:42;6.55;;;6.30;;
35612;SDS011;22054;51.646;7.078;2023-08-21T05:37:08;6.10;;;5.90;;
35612;SDS011;22054;51.646;7.078;2023-08-21T05:39:34;5.80;;;5.60;;
35612;SDS011;22054;51.646;7.078;2023-08-21T05:42:00;6.35;;;6.15;;
35612;SDS011;22054;51.646;7.078;2023-08-21T05:44:25;6.03;;;5.82;;
35612;SDS011;22054;51.646;7.078;2023-08-21T05:46:51;6.07;;;5.88;;
35612;SDS011;22054;51.646;7.078;2023-08-21T05:49:17;6.70;;;6.40;;
35612;SDS011;22054;51.646;7.078;2023-08-21T05:51:49;5.95;;;5.75;;
35612;SDS011;22054;51.646;7.078;2023-08-21T05:54:14;6.40;;;6.20;;
35612;SDS011;22054;51.646;7.078;2023-08-21T05:56:40;6.40;;;6.20;;
35612;SDS011;22054;51.646;7.078;2023-08-21T05:59:09;6.30;;;6.10;;
35612;SDS011;22054;51.646;7.078;2023-08-21T06:01:36;6.47;;;6.28;;
35612;SDS011;22054;51.646;7.078;2023-08-21T06:04:03;6.90;;;6.60;;
35612;SDS011;22054;51.646;7.078;2023-08-21T06:06:29;7.47;;;7.18;;
35612;SDS011;22054;51.646;7.078;2023-08-21T06:08:54;6.82;;;6.53;;
35612;SDS011;22054;51.646;7.078;2023-08-21T06:11:20;6.00;;;5.80;;
35612;SDS011;22054;51.646;7.078;2023-08-21T06:13:47;4.72;;;4.53;;
35612;SDS011;22054;51.646;7.078;2023-08-21T06:16:19;4.10;;;3.90;;
35612;SDS011;22054;51.646;7.078;2023-08-21T06:18:44;4.95;;;4.75;;
35612;SDS011;22054;51.646;7.078;2023-08-21T06:21:10;5.85;;;5.65;;
35612;SDS011;22054;51.646;7.078;2023-08-21T06:23:36;6.13;;;5.93;;
35612;SDS011;22054;51.646;7.078;2023-08-21T06:26:01;5.88;;;5.68;;
35612;SDS011;22054;51.646;7.078;2023-08-21T06:28:27;6.18;;;5.97;;
35612;SDS011;22054;51.646;7.078;2023-08-21T06:30:55;8.30;;;7.90;;
35612;SDS011;22054;51.646;7.078;2023-08-21T06:33:28;5.25;;;5.05;;
35612;SDS011;22054;51.646;7.078;2023-08-21T06:35:53;5.40;;;5.20;;
35612;SDS011;22054;51.646;7.078;2023-08-21T06:38:19;5.90;;;5.70;;
35612;SDS011;22054;51.646;7.078;2023-08-21T06:40:45;5.35;;;5.15;;
35612;SDS011;22054;51.646;7.078;2023-08-21T06:43:12;5.70;;;5.50;;
35612;SDS011;22054;51.646;7.078;2023-08-21T06:45:38;5.57;;;5.38;;
35612;SDS011;22054;51.646;7.078;2023-08-21T06:48:03;5.55;;;5.35;;
35612;SDS011;22054;51.646;7.078;2023-08-21T06:50:30;5.80;;;5.60;;
35612;SDS011;22054;51.646;7.078;2023-08-21T06:52:56;5.50;;;5.30;;
35612;SDS011;22054;51.646;7.078;2023-08-21T06:55:21;5.80;;;5.60;;
35612;SDS011;22054;51.646;7.078;2023-08-21T06:57:47;5.68;;;5.47;;
35612;SDS011;22054;51.646;7.078;2023-08-21T07:00:13;5.72;;;5.53;;
35612;SDS011;22054;51.646;7.078;2023-08-21T07:02:39;6.05;;;5.85;;
35612;SDS011;22054;51.646;7.078;2023-08-21T07:05:05;5.88;;;5.68;;
35612;SDS011;22054;51.646;7.078;2023-08-21T07:07:31;5.93;;;5.72;;
35612;SDS011;22054;51.646;7.078;2023-08-21T07:09:56;6.10;;;5.90;;
35612;SDS011;22054;51.646;7.078;2023-08-21T07:12:22;5.80;;;5.60;;
35612;SDS011;22054;51.646;7.078;2023-08-21T07:14:48;5.50;;;5.30;;
35612;SDS011;22054;51.646;7.078;2023-08-21T07:17:14;5.30;;;5.10;;
35612;SDS011;22054;51.646;7.078;2023-08-21T07:19:40;5.45;;;5.25;;
35612;SDS011;22054;51.646;7.078;2023-08-21T07:22:05;5.40;;;5.20;;
35612;SDS011;22054;51.646;7.078;2023-08-21T07:24:31;5.50;;;5.30;;
35612;SDS011;22054;51.646;7.078;2023-08-21T07:26:57;5.53;;;5.32;;
35612;SDS011;22054;51.646;7.078;2023-08-21T07:29:22;5.60;;;5.40;;
35612;SDS011;22054;51.646;7.078;2023-08-21T07:31:48;5.90;;;5.70;;
35612;SDS011;22054;51.646;7.078;2023-08-21T07:34:14;5.60;;;5.40;;
35612;SDS011;22054;51.646;7.078;2023-08-21T07:36:40;5.72;;;5.53;;
35612;SDS011;22054;51.646;7.078;2023-08-21T07:39:05;6.13;;;5.93;;
35612;SDS011;22054;51.646;7.078;2023-08-21T07:41:31;6.20;;;6.00;;
35612;SDS011;22054;51.646;7.078;2023-08-21T07:43:57;6.18;;;5.97;;
35612;SDS011;22054;51.646;7.078;2023-08-21T07:46:22;5.82;;;5.63;;
35612;SDS011;22054;51.646;7.078;2023-08-21T07:48:49;6.10;;;5.90;;
35612;SDS011;22054;51.646;7.078;2023-08-21T07:51:15;6.45;;;6.22;;
35612;SDS011;22054;51.646;7.078;2023-08-21T07:53:41;6.30;;;6.10;;
35612;SDS011;22054;51.646;7.078;2023-08-21T07:56:07;5.60;;;5.40;;
35612;SDS011;22054;51.646;7.078;2023-08-21T07:58:33;5.93;;;5.72;;
35612;SDS011;22054;51.646;7.078;2023-08-21T08:01:00;5.93;;;5.72;;
35612;SDS011;22054;51.646;7.078;2023-08-21T08:03:30;5.97;;;5.78;;
35612;SDS011;22054;51.646;7.078;2023-08-21T08:05:56;5.68;;;5.47;;
35612;SDS011;22054;51.646;7.078;2023-08-21T08:08:22;5.72;;;5.53;;
35612;SDS011;22054;51.646;7.078;2023-08-21T08:10:48;5.93;;;5.72;;
35612;SDS011;22054;51.646;7.078;2023-08-21T08:13:13;5.70;;;5.50;;
35612;SDS011;22054;51.646;7.078;2023-08-21T08:15:39;5.38;;;5.18;;
35612;SDS011;22054;51.646;7.078;2023-08-21T08:18:10;5.50;;;5.30;;
35612;SDS011;22054;51.646;7.078;2023-08-21T08:20:37;5.60;;;5.40;;
35612;SDS011;22054;51.646;7.078;2023-08-21T08:23:03;5.80;;;5.60;;
35612;SDS011;22054;51.646;7.078;2023-08-21T08:25:30;5.53;;;5.32;;
35612;SDS011;22054;51.646;7.078;2023-08-21T08:27:56;6.15;;;5.95;;
35612;SDS011;22054;51.646;7.078;2023-08-21T08:30:25;6.10;;;5.90;;
35612;SDS011;22054;51.646;7.078;2023-08-21T08:32:51;5.82;;;5.63;;
35612;SDS011;22054;51.646;7.078;2023-08-21T08:35:17;5.80;;;5.60;;
35612;SDS011;22054;51.646;7.078;2023-08-21T08:37:43;5.60;;;5.40;;
35612;SDS011;22054;51.646;7.078;2023-08-21T08:40:10;5.45;;;5.25;;
35612;SDS011;22054;51.646;7.078;2023-08-21T08:42:36;5.13;;;4.93;;
35612;SDS011;22054;51.646;7.078;2023-08-21T08:45:03;5.75;;;5.55;;
35612;SDS011;22054;51.646;7.078;2023-08-21T08:47:35;5.70;;;5.50;;
35612;SDS011;22054;51.646;7.078;2023-08-21T08:50:05;6.07;;;5.88;;
35612;SDS011;22054;51.646;7.078;2023-08-21T08:52:37;6.38;;;6.18;;
35612;SDS011;22054;51.646;7.078;2023-08-21T08:55:04;6.10;;;5.90;;
35612;SDS011;22054;51.646;7.078;2023-08-21T08:59:59;6.10;;;5.90;;
35612;SDS011;22054;51.646;7.078;2023-08-21T09:02:26;5.70;;;5.50;;
35612;SDS011;22054;51.646;7.078;2023-08-21T09:04:52;4.97;;;4.78;;
35612;SDS011;22054;51.646;7.078;2023-08-21T09:07:18;5.70;;;5.50;;
35612;SDS011;22054;51.646;7.078;2023-08-21T09:09:48;6.15;;;5.95;;
35612;SDS011;22054;51.646;7.078;2023-08-21T09:12:16;6.03;;;5.82;;
35612;SDS011;22054;51.646;7.078;2023-08-21T09:14:43;5.82;;;5.63;;
35612;SDS011;22054;51.646;7.078;2023-08-21T09:17:09;6.45;;;6.25;;
35612;SDS011;22054;51.646;7.078;2023-08-21T09:19:36;6.50;;;6.25;;
35612;SDS011;22054;51.646;7.078;2023-08-21T09:22:08;6.30;;;6.10;;
35612;SDS011;22054;51.646;7.078;2023-08-21T09:24:38;5.88;;;5.68;;
35612;SDS011;22054;51.646;7.078;2023-08-21T09:27:05;6.40;;;6.20;;
35612;SDS011;22054;51.646;7.078;2023-08-21T09:29:41;6.68;;;6.38;;
35612;SDS011;22054;51.646;7.078;2023-08-21T09:32:07;6.63;;;6.32;;
35612;SDS011;22054;51.646;7.078;2023-08-21T09:34:36;5.97;;;5.78;;
35612;SDS011;22054;51.646;7.078;2023-08-21T09:39:35;5.90;;;5.70;;
35612;SDS011;22054;51.646;7.078;2023-08-21T09:42:05;6.40;;;6.20;;
35612;SDS011;22054;51.646;7.078;2023-08-21T09:44:39;6.05;;;5.85;;
35612;SDS011;22054;51.646;7.078;2023-08-21T09:47:08;6.60;;;6.35;;
35612;SDS011;22054;51.646;7.078;2023-08-21T09:49:36;6.47;;;6.28;;
35612;SDS011;22054;51.646;7.078;2023-08-21T09:52:07;7.20;;;6.90;;
35612;SDS011;22054;51.646;7.078;2023-08-21T09:54:35;6.88;;;6.57;;
35612;SDS011;22054;51.646;7.078;2023-08-21T09:57:03;6.70;;;6.40;;
35612;SDS011;22054;51.646;7.078;2023-08-21T09:59:30;6.70;;;6.40;;
35612;SDS011;22054;51.646;7.078;2023-08-21T10:01:58;6.75;;;6.45;;
35612;SDS011;22054;51.646;7.078;2023-08-21T10:04:25;6.80;;;6.50;;
35612;SDS011;22054;51.646;7.078;2023-08-21T10:06:57;6.72;;;6.43;;
35612;SDS011;22054;51.646;7.078;2023-08-21T10:09:25;7.13;;;6.82;;
35612;SDS011;22054;51.646;7.078;2023-08-21T10:11:54;7.40;;;7.10;;
35612;SDS011;22054;51.646;7.078;2023-08-21T10:14:22;6.70;;;6.40;;
35612;SDS011;22054;51.646;7.078;2023-08-21T10:16:51;6.60;;;6.30;;
35612;SDS011;22054;51.646;7.078;2023-08-21T10:19:18;6.90;;;6.60;;
35612;SDS011;22054;51.646;7.078;2023-08-21T10:21:46;7.00;;;6.70;;
35612;SDS011;22054;51.646;7.078;2023-08-21T10:24:14;7.05;;;6.75;;
35612;SDS011;22054;51.646;7.078;2023-08-21T10:27:01;6.93;;;6.63;;
35612;SDS011;22054;51.646;7.078;2023-08-21T10:29:27;7.10;;;6.80;;
35612;SDS011;22054;51.646;7.078;2023-08-21T10:31:59;7.00;;;6.70;;
35612;SDS011;22054;51.646;7.078;2023-08-21T10:34:37;6.40;;;6.20;;
35612;SDS011;22054;51.646;7.078;2023-08-21T10:39:41;6.70;;;6.40;;
35612;SDS011;22054;51.646;7.078;2023-08-21T10:42:21;6.80;;;6.50;;
35612;SDS011;22054;51.646;7.078;2023-08-21T10:45:13;7.18;;;6.88;;
35612;SDS011;22054;51.646;7.078;2023-08-21T10:47:39;6.55;;;6.28;;
35612;SDS011;22054;51.646;7.078;2023-08-21T10:50:06;6.90;;;6.60;;
35612;SDS011;22054;51.646;7.078;2023-08-21T10:52:40;7.25;;;6.95;;
35612;SDS011;22054;51.646;7.078;2023-08-21T10:55:10;6.45;;;6.25;;
35612;SDS011;22054;51.646;7.078;2023-08-21T10:57:38;6.95;;;6.65;;
35612;SDS011;22054;51.646;7.078;2023-08-21T11:00:08;7.22;;;6.93;;
35612;SDS011;22054;51.646;7.078;2023-08-21T11:05:08;7.10;;;6.80;;
35612;SDS011;22054;51.646;7.078;2023-08-21T11:07:42;7.05;;;6.75;;
35612;SDS011;22054;51.646;7.078;2023-08-21T11:10:14;6.30;;;6.10;;
35612;SDS011;22054;51.646;7.078;2023-08-21T11:12:50;6.78;;;6.47;;
35612;SDS011;22054;51.646;7.078;2023-08-21T11:15:18;6.85;;;6.55;;
35612;SDS011;22054;51.646;7.078;2023-08-21T11:17:53;6.50;;;6.30;;
35612;SDS011;22054;51.646;7.078;2023-08-21T11:20:30;6.03;;;5.82;;
35612;SDS011;22054;51.646;7.078;2023-08-21T11:23:00;7.07;;;6.78;;
35612;SDS011;22054;51.646;7.078;2023-08-21T11:25:33;6.80;;;6.50;;
35612;SDS011;22054;51.646;7.078;2023-08-21T11:28:04;6.88;;;6.57;;
35612;SDS011;22054;51.646;7.078;2023-08-21T11:30:31;7.00;;;6.70;;
35612;SDS011;22054;51.646;7.078;2023-08-21T11:35:36;6.80;;;6.50;;
35612;SDS011;22054;51.646;7.078;2023-08-21T11:38:03;6.95;;;6.65;;
35612;SDS011;22054;51.646;7.078;2023-08-21T11:40:34;7.30;;;7.00;;
35612;SDS011;22054;51.646;7.078;2023-08-21T11:43:00;7.25;;;6.95;;
35612;SDS011;22054;51.646;7.078;2023-08-21T11:45:26;7.07;;;6.78;;
35612;SDS011;22054;51.646;7.078;2023-08-21T11:47:55;7.10;;;6.80;;
35612;SDS011;22054;51.646;7.078;2023-08-21T11:50:22;6.90;;;6.60;;
35612;SDS011;22054;51.646;7.078;2023-08-21T11:52:52;7.30;;;7.00;;
35612;SDS011;22054;51.646;7.078;2023-08-21T11:55:20;6.72;;;6.43;;
35612;SDS011;22054;51.646;7.078;2023-08-21T11:57:46;7.43;;;7.13;;
35612;SDS011;22054;51.646;7.078;2023-08-21T12:00:13;7.60;;;7.30;;
35612;SDS011;22054;51.646;7.078;2023-08-21T12:02:44;7.72;;;7.43;;
35612;SDS011;22054;51.646;7.078;2023-08-21T12:05:33;7.10;;;6.80;;
35612;SDS011;22054;51.646;7.078;2023-08-21T12:07:59;7.22;;;6.93;;
35612;SDS011;22054;51.646;7.078;2023-08-21T12:10:25;6.90;;;6.60;;
35612;SDS011;22054;51.646;7.078;2023-08-21T12:12:54;7.80;;;7.50;;
35612;SDS011;22054;51.646;7.078;2023-08-21T12:15:21;7.45;;;7.15;;
35612;SDS011;22054;51.646;7.078;2023-08-21T12:17:47;7.85;;;7.55;;
35612;SDS011;22054;51.646;7.078;2023-08-21T12:20:13;7.63;;;7.32;;
35612;SDS011;22054;51.646;7.078;2023-08-21T12:22:39;7.60;;;7.30;;
35612;SDS011;22054;51.646;7.078;2023-08-21T12:25:07;7.80;;;7.50;;
35612;SDS011;22054;51.646;7.078;2023-08-21T12:27:34;7.20;;;6.90;;
35612;SDS011;22054;51.646;7.078;2023-08-21T12:29:59;6.82;;;6.53;;
35612;SDS011;22054;51.646;7.078;2023-08-21T12:32:26;7.30;;;7.00;;
35612;SDS011;22054;51.646;7.078;2023-08-21T12:34:52;7.63;;;7.32;;
35612;SDS011;22054;51.646;7.078;2023-08-21T12:37:18;7.60;;;7.30;;
35612;SDS011;22054;51.646;7.078;2023-08-21T12:39:44;7.70;;;7.40;;
35612;SDS011;22054;51.646;7.078;2023-08-21T12:42:09;7.45;;;7.15;;
35612;SDS011;22054;51.646;7.078;2023-08-21T12:44:35;7.90;;;7.60;;
35612;SDS011;22054;51.646;7.078;2023-08-21T12:47:01;7.20;;;6.90;;
35612;SDS011;22054;51.646;7.078;2023-08-21T12:49:27;7.13;;;6.82;;
35612;SDS011;22054;51.646;7.078;2023-08-21T12:51:53;7.07;;;6.78;;
35612;SDS011;22054;51.646;7.078;2023-08-21T12:54:20;7.63;;;7.32;;
35612;SDS011;22054;51.646;7.078;2023-08-21T12:56:46;7.30;;;7.00;;
35612;SDS011;22054;51.646;7.078;2023-08-21T12:59:14;7.13;;;6.82;;
35612;SDS011;22054;51.646;7.078;2023-08-21T13:01:40;7.65;;;7.35;;
35612;SDS011;22054;51.646;7.078;2023-08-21T13:04:09;7.70;;;7.40;;
35612;SDS011;22054;51.646;7.078;2023-08-21T13:06:34;7.40;;;7.10;;
35612;SDS011;22054;51.646;7.078;2023-08-21T13:09:00;7.32;;;7.03;;
35612;SDS011;22054;51.646;7.078;2023-08-21T13:11:26;6.85;;;6.55;;
35612;SDS011;22054;51.646;7.078;2023-08-21T13:13:55;7.30;;;7.00;;
35612;SDS011;22054;51.646;7.078;2023-08-21T13:16:21;7.40;;;7.10;;
35612;SDS011;22054;51.646;7.078;2023-08-21T13:18:49;7.30;;;7.00;;
35612;SDS011;22054;51.646;7.078;2023-08-21T13:21:15;7.20;;;6.90;;
35612;SDS011;22054;51.646;7.078;2023-08-21T13:23:41;7.07;;;6.78;;
35612;SDS011;22054;51.646;7.078;2023-08-21T13:26:07;7.00;;;6.70;;
35612;SDS011;22054;51.646;7.078;2023-08-21T13:28:39;7.30;;;7.00;;
35612;SDS011;22054;51.646;7.078;2023-08-21T13:31:04;7.45;;;7.15;;
35612;SDS011;22054;51.646;7.078;2023-08-21T13:33:43;7.75;;;7.45;;
35612;SDS011;22054;51.646;7.078;2023-08-21T13:36:14;7.40;;;7.10;;
35612;SDS011;22054;51.646;7.078;2023-08-21T13:38:39;7.68;;;7.38;;
35612;SDS011;22054;51.646;7.078;2023-08-21T13:41:08;7.70;;;7.40;;
35612;SDS011;22054;51.646;7.078;2023-08-21T13:43:34;7.70;;;7.40;;
35612;SDS011;22054;51.646;7.078;2023-08-21T13:46:00;7.70;;;7.40;;
35612;SDS011;22054;51.646;7.078;2023-08-21T13:48:29;7.60;;;7.30;;
35612;SDS011;22054;51.646;7.078;2023-08-21T13:50:55;7.43;;;7.13;;
35612;SDS011;22054;51.646;7.078;2023-08-21T13:53:21;7.20;;;6.90;;
35612;SDS011;22054;51.646;7.078;2023-08-21T13:55:47;7.15;;;6.85;;
35612;SDS011;22054;51.646;7.078;2023-08-21T13:58:14;7.40;;;7.10;;
35612;SDS011;22054;51.646;7.078;2023-08-21T14:00:40;7.00;;;6.70;;
35612;SDS011;22054;51.646;7.078;2023-08-21T14:03:05;6.88;;;6.57;;
35612;SDS011;22054;51.646;7.078;2023-08-21T14:05:31;7.10;;;6.80;;
35612;SDS011;22054;51.646;7.078;2023-08-21T14:07:58;7.13;;;6.82;;
35612;SDS011;22054;51.646;7.078;2023-08-21T14:10:25;7.32;;;7.03;;
35612;SDS011;22054;51.646;7.078;2023-08-21T14:12:54;6.40;;;6.20;;
35612;SDS011;22054;51.646;7.078;2023-08-21T14:15:21;6.90;;;6.60;;
35612;SDS011;22054;51.646;7.078;2023-08-21T14:17:48;7.10;;;6.80;;
35612;SDS011;22054;51.646;7.078;2023-08-21T14:20:17;7.10;;;6.80;;
35612;SDS011;22054;51.646;7.078;2023-08-21T14:22:43;6.70;;;6.40;;
35612;SDS011;22054;51.646;7.078;2023-08-21T14:25:09;6.82;;;6.53;;
35612;SDS011;22054;51.646;7.078;2023-08-21T14:27:35;6.70;;;6.40;;
35612;SDS011;22054;51.646;7.078;2023-08-21T14:30:01;7.05;;;6.75;;
35612;SDS011;22054;51.646;7.078;2023-08-21T14:32:30;6.10;;;5.90;;
35612;SDS011;22054;51.646;7.078;2023-08-21T14:34:56;5.70;;;5.50;;
35612;SDS011;22054;51.646;7.078;2023-08-21T14:37:22;6.28;;;6.07;;
35612;SDS011;22054;51.646;7.078;2023-08-21T14:39:48;6.10;;;5.90;;
35612;SDS011;22054;51.646;7.078;2023-08-21T14:42:14;6.15;;;5.95;;
35612;SDS011;22054;51.646;7.078;2023-08-21T14:44:40;6.60;;;6.30;;
35612;SDS011;22054;51.646;7.078;2023-08-21T14:47:06;6.20;;;6.00;;
35612;SDS011;22054;51.646;7.078;2023-08-21T14:49:33;6.70;;;6.40;;
35612;SDS011;22054;51.646;7.078;2023-08-21T14:51:58;6.38;;;6.18;;
35612;SDS011;22054;51.646;7.078;2023-08-21T14:54:24;6.63;;;6.32;;
35612;SDS011;22054;51.646;7.078;2023-08-21T14:56:53;6.50;;;6.30;;
35612;SDS011;22054;51.646;7.078;2023-08-21T14:59:19;6.00;;;5.80;;
35612;SDS011;22054;51.646;7.078;2023-08-21T15:01:44;6.30;;;6.10;;
35612;SDS011;22054;51.646;7.078;2023-08-21T15:04:10;6.90;;;6.60;;
35612;SDS011;22054;51.646;7.078;2023-08-21T15:06:37;6.30;;;6.10;;
35612;SDS011;22054;51.646;7.078;2023-08-21T15:09:04;6.78;;;6.47;;